createdAt,value
2023-03-11T00:01:01.596Z,1.58
2023-03-11T00:07:09.227Z,2.30
2023-03-11T00:13:13.768Z,1.95
2023-03-11T00:19:17.556Z,1.60
2023-03-11T00:25:23.327Z,2.00
2023-03-11T00:31:27.539Z,1.75
2023-03-11T00:37:31.021Z,1.88
2023-03-11T00:43:35.824Z,1.80
2023-03-11T00:49:39.483Z,2.13
2023-03-11T00:55:43.119Z,1.58
2023-03-11T01:01:47.907Z,1.35
2023-03-11T01:07:51.337Z,1.73
2023-03-11T01:13:54.739Z,1.92
2023-03-11T01:19:59.498Z,3.35
2023-03-11T01:26:02.970Z,2.30
2023-03-11T01:32:06.901Z,2.65
2023-03-11T01:38:11.712Z,3.47
2023-03-11T01:44:15.186Z,3.00
2023-03-11T01:50:19.018Z,3.60
2023-03-11T01:56:23.856Z,4.22
2023-03-11T02:02:30.207Z,3.17
2023-03-11T02:08:35.142Z,2.65
2023-03-11T02:14:41.352Z,2.70
2023-03-11T02:20:47.540Z,2.77
2023-03-11T02:26:54.700Z,2.72
2023-03-11T02:32:58.338Z,2.10
2023-03-11T02:39:01.769Z,2.20
2023-03-11T02:45:08.994Z,2.20
2023-03-11T02:51:12.833Z,2.53
2023-03-11T02:57:16.974Z,2.60
2023-03-11T03:03:21.767Z,2.50
2023-03-11T03:09:25.248Z,2.53
2023-03-11T03:15:29.056Z,5.72
2023-03-11T03:21:34.031Z,3.90
2023-03-11T03:27:37.559Z,2.88
2023-03-11T03:33:41.096Z,3.33
2023-03-11T03:39:46.179Z,2.10
2023-03-11T03:45:56.827Z,6.15
2023-03-11T03:52:00.253Z,3.65
2023-03-11T03:58:05.093Z,3.17
2023-03-11T04:04:08.478Z,2.85
2023-03-11T04:10:12.766Z,2.45
2023-03-11T04:16:18.788Z,2.40
2023-03-11T04:22:22.293Z,2.60
2023-03-11T04:28:25.702Z,2.80
2023-03-11T04:34:30.522Z,2.77
2023-03-11T04:40:33.952Z,2.40
2023-03-11T04:46:37.615Z,3.38
2023-03-11T04:52:42.472Z,2.63
2023-03-11T04:58:46.042Z,3.00
2023-03-11T05:04:49.648Z,2.87
2023-03-11T05:10:54.809Z,3.25
2023-03-11T05:16:58.361Z,3.00
2023-03-11T05:23:01.904Z,3.20
2023-03-11T05:29:06.733Z,3.10
2023-03-11T05:35:10.479Z,2.93
2023-03-11T05:41:13.932Z,2.77
2023-03-11T05:47:20.046Z,3.20
2023-03-11T05:53:23.482Z,3.13
2023-03-11T05:59:26.934Z,3.17
2023-03-11T06:05:32.963Z,2.63
2023-03-11T06:11:36.421Z,2.83
2023-03-11T06:17:39.882Z,2.73
2023-03-11T06:23:44.647Z,2.77
2023-03-11T06:29:48.768Z,2.58
2023-03-11T06:35:58.996Z,2.97
2023-03-11T06:42:03.996Z,3.20
2023-03-11T06:48:07.718Z,3.10
2023-03-11T06:54:11.973Z,3.20
2023-03-11T07:00:17.548Z,3.63
2023-03-11T07:06:22.278Z,3.42
2023-03-11T07:12:25.745Z,3.63
2023-03-11T07:18:30.564Z,3.63
2023-03-11T07:24:33.977Z,4.55
2023-03-11T07:30:37.828Z,4.80
2023-03-11T07:36:43.145Z,4.70
2023-03-11T07:42:46.688Z,5.60
2023-03-11T07:48:50.758Z,5.72
2023-03-11T07:54:56.186Z,6.03
2023-03-11T08:01:04.844Z,6.50
2023-03-11T08:07:08.608Z,7.55
2023-03-11T08:13:13.634Z,6.72
2023-03-11T08:19:17.031Z,6.18
2023-03-11T08:25:20.438Z,5.78
2023-03-11T08:31:26.110Z,6.18
2023-03-11T08:37:29.592Z,5.03
2023-03-11T08:43:33.257Z,5.63
2023-03-11T08:49:39.290Z,4.32
2023-03-11T08:55:42.707Z,4.05
2023-03-11T09:01:46.862Z,4.03
2023-03-11T09:07:53.126Z,4.22
2023-03-11T09:13:56.657Z,4.35
2023-03-11T09:20:00.111Z,4.40
2023-03-11T09:26:05.356Z,3.55
2023-03-11T09:32:09.503Z,4.32
2023-03-11T09:38:12.893Z,3.53
2023-03-11T09:44:20.168Z,3.63
2023-03-11T09:50:26.079Z,3.10
2023-03-11T09:56:30.622Z,2.30
2023-03-11T10:02:38.108Z,1.85
2023-03-11T10:08:44.121Z,1.50
2023-03-11T10:14:52.897Z,2.15
2023-03-11T10:21:00.543Z,2.13
2023-03-11T10:27:05.188Z,1.75
2023-03-11T10:33:10.881Z,1.50
2023-03-11T10:39:15.816Z,1.85
2023-03-11T10:45:20.952Z,1.30
2023-03-11T10:51:26.854Z,1.63
2023-03-11T10:57:34.868Z,1.88
2023-03-11T11:03:38.609Z,1.42
2023-03-11T11:09:42.025Z,1.00
2023-03-11T11:15:54.512Z,1.48
2023-03-11T11:21:58.129Z,1.52
2023-03-11T11:28:02.849Z,1.27
2023-03-11T11:34:24.690Z,1.10
2023-03-11T11:40:30.112Z,1.10
2023-03-11T11:46:37.557Z,1.15
2023-03-11T11:52:45.642Z,0.75
2023-03-11T11:58:49.165Z,1.15
2023-03-11T12:04:56.397Z,1.00
2023-03-11T12:11:03.231Z,1.25
2023-03-11T12:17:07.196Z,2.05
2023-03-11T12:23:19.252Z,1.77
2023-03-11T12:29:27.622Z,1.73
2023-03-11T12:35:32.775Z,6.47
2023-03-11T12:41:41.291Z,2.72
2023-03-11T12:47:46.173Z,1.60
2023-03-11T12:53:50.540Z,2.10
2023-03-11T13:00:07.818Z,1.75
2023-03-11T13:06:22.453Z,1.70
2023-03-11T13:12:43.717Z,2.00
2023-03-11T13:18:47.740Z,1.65
2023-03-11T13:24:53.152Z,2.17
2023-03-11T13:31:01.802Z,1.50
2023-03-11T13:37:11.502Z,1.52
2023-03-11T13:43:18.046Z,1.73
2023-03-11T13:49:27.117Z,18.77
2023-03-11T13:55:33.506Z,24.52
2023-03-11T14:01:38.355Z,2.25
2023-03-11T14:07:42.305Z,1.35
2023-03-11T14:13:46.715Z,1.27
2023-03-11T14:20:09.516Z,1.58
2023-03-11T14:26:15.998Z,2.05
2023-03-11T14:32:25.540Z,1.13
2023-03-11T14:38:31.235Z,1.40
2023-03-11T14:44:36.445Z,1.10
2023-03-11T14:50:40.402Z,1.50
2023-03-11T14:56:47.739Z,1.10
2023-03-11T15:03:07.432Z,1.27
2023-03-11T15:09:12.778Z,1.50
2023-03-11T15:15:29.271Z,2.10
2023-03-11T15:21:32.901Z,1.10
2023-03-11T15:27:37.568Z,1.50
2023-03-11T15:33:42.910Z,1.60
2023-03-11T15:39:47.426Z,1.15
2023-03-11T15:45:51.372Z,1.40
2023-03-11T15:51:59.537Z,1.33
2023-03-11T15:58:05.137Z,1.10
2023-03-11T16:04:11.532Z,1.20
2023-03-11T16:10:17.663Z,1.08
2023-03-11T16:16:21.122Z,1.45
2023-03-11T16:22:26.385Z,1.90
2023-03-11T16:28:31.198Z,1.40
2023-03-11T16:34:34.629Z,2.20
2023-03-11T16:40:38.255Z,1.80
2023-03-11T16:46:43.135Z,1.92
2023-03-11T16:52:46.562Z,2.20
2023-03-11T16:58:50.215Z,1.60
2023-03-11T17:04:55.135Z,1.50
2023-03-11T17:10:58.587Z,1.90
2023-03-11T17:17:02.173Z,1.95
2023-03-11T17:23:07.089Z,1.95
2023-03-11T17:29:10.610Z,2.70
2023-03-11T17:35:14.251Z,3.28
2023-03-11T17:41:19.786Z,3.00
2023-03-11T17:47:26.081Z,2.85
2023-03-11T17:53:29.711Z,4.22
2023-03-11T17:59:34.531Z,6.20
2023-03-11T18:05:40.125Z,4.32
2023-03-11T18:11:43.587Z,4.65
2023-03-11T18:17:48.868Z,4.20
2023-03-11T18:23:54.073Z,4.53
2023-03-11T18:29:58.713Z,5.18
2023-03-11T18:36:11.898Z,6.47
2023-03-11T18:42:16.005Z,6.70
2023-03-11T18:48:19.670Z,9.57
2023-03-11T18:54:24.845Z,15.88
2023-03-11T19:00:28.303Z,9.27
2023-03-11T19:06:32.020Z,5.15
2023-03-11T19:12:38.172Z,5.07
2023-03-11T19:18:41.699Z,5.43
2023-03-11T19:24:45.347Z,5.15
2023-03-11T19:30:53.342Z,5.43
2023-03-11T19:36:56.832Z,6.30
2023-03-11T19:43:00.273Z,6.07
2023-03-11T19:49:06.025Z,4.97
2023-03-11T19:55:09.909Z,4.88
2023-03-11T20:01:19.962Z,4.20
2023-03-11T20:07:24.875Z,5.25
2023-03-11T20:13:28.397Z,6.07
2023-03-11T20:19:32.094Z,5.38
2023-03-11T20:25:36.923Z,5.53
2023-03-11T20:31:41.211Z,5.93
2023-03-11T20:37:44.821Z,5.80
2023-03-11T20:43:49.639Z,6.05
2023-03-11T20:49:53.482Z,15.50
2023-03-11T20:55:57.003Z,6.88
2023-03-11T21:02:02.176Z,13.93
2023-03-11T21:08:06.074Z,9.75
2023-03-11T21:14:10.253Z,12.57
2023-03-11T21:20:15.315Z,6.25
2023-03-11T21:26:19.561Z,7.43
2023-03-11T21:32:23.381Z,5.88
2023-03-11T21:38:28.795Z,5.30
2023-03-11T21:44:32.374Z,5.13
2023-03-11T21:50:35.957Z,5.45
2023-03-11T21:56:41.348Z,5.30
2023-03-11T22:02:45.079Z,5.53
2023-03-11T22:08:48.835Z,5.50
2023-03-11T22:14:53.676Z,5.00
2023-03-11T22:20:59.355Z,4.80
2023-03-11T22:27:05.776Z,12.45
2023-03-11T22:33:10.670Z,20.70
2023-03-11T22:39:14.260Z,27.20
2023-03-11T22:45:17.691Z,10.32
2023-03-11T22:51:22.605Z,13.63
2023-03-11T22:57:26.253Z,9.65
2023-03-11T23:03:29.858Z,9.50
2023-03-11T23:09:34.914Z,3.63
2023-03-11T23:15:38.660Z,3.00
2023-03-11T23:21:42.251Z,3.17
2023-03-11T23:27:47.417Z,2.97
2023-03-11T23:33:51.289Z,2.75
2023-03-11T23:39:54.666Z,2.85
2023-03-11T23:45:59.640Z,2.70
2023-03-11T23:52:03.120Z,2.83
2023-03-11T23:58:06.826Z,2.50
